AKDT,Max TemperatureF,Mean TemperatureF,Min TemperatureF,Max Dew PointF,MeanDew PointF,Min DewpointF,Max Humidity, Mean Humidity, Min Humidity, Max Sea Level PressureIn, Mean Sea Level PressureIn, Min Sea Level PressureIn, Max VisibilityMiles, Mean VisibilityMiles, Min VisibilityMiles, Max Wind SpeedMPH, Mean Wind SpeedMPH, Max Gust SpeedMPH,PrecipitationIn, CloudCover, Events, WindDirDegrees
2011-10-1,52,49,45,46,43,36,0,0,0,29.46,29.38,29.31,10,8,2,26,11,33,0.39,7,Rain,11
2011-10-2,48,41,34,44,39,33,0,0,0,29.47,29.44,29.42,10,10,7,7,4,8,T,5,Rain,270
2011-10-3,49,44,39,44,41,38,0,0,0,29.49,29.39,29.34,10,9,2,5,2,6,0.21,7,Rain,5
2011-10-4,54,46,38,41,38,34,0,0,0,29.58,29.56,29.50,10,10,10,12,5,15,0.00,4,,293
2011-10-5,51,42,33,47,41,30,0,0,0,29.55,29.35,29.19,10,9,3,20,6,24,0.33,6,Rain,181
2011-10-6,53,46,39,43,39,36,0,0,0,29.57,29.34,29.21,10,10,6,15,3,21,0.08,6,Rain,285
2011-10-7,50,43,36,39,37,33,0,0,0,29.78,29.71,29.60,10,10,10,8,4,10,0.00,5,,311
2011-10-8,51,42,33,39,36,32,0,0,0,29.79,29.73,29.61,10,10,10,9,5,12,T,3,,268
2011-10-9,48,39,29,38,33,28,0,0,0,29.61,29.52,29.49,10,10,10,12,7,15,0.00,3,,307
2011-10-10,51,46,41,40,36,31,0,0,0,29.52,29.51,29.50,10,10,6,18,10,26,0.13,4,Rain,311
2011-10-11,47,43,38,34,29,25,0,0,0,29.74,29.59,29.51,10,10,10,18,11,25,0.00,3,,289
2011-10-12,49,42,35,28,26,18,0,0,0,30.03,29.92,29.76,10,10,10,20,7,28,0.00,3,,284
2011-10-13,48,41,34,45,34,26,0,0,0,30.02,29.93,29.68,10,10,2,8,5,9,0.00,7,Rain,245
2011-10-14,52,50,48,46,43,38,0,0,0,29.64,29.33,29.20,10,8,4,33,16,41,0.14,7,Rain,165
2011-10-15,48,47,45,39,35,32,0,0,0,29.68,29.53,29.34,10,10,10,20,8,24,0.00,7,,294
2011-10-16,48,42,36,34,30,27,0,0,0,29.87,29.76,29.68,10,10,10,13,6,17,0.00,3,,290
2011-10-17,46,37,27,30,27,25,0,0,0,29.89,29.85,29.79,10,10,10,9,6,9,0.00,5,,284
2011-10-18,49,40,30,31,24,21,0,0,0,29.79,29.77,29.76,10,10,10,20,5,28,0.00,2,,278
2011-10-19,42,33,24,35,27,21,0,0,0,29.78,29.69,29.57,10,10,10,10,8,12,0.00,2,Rain,50
2011-10-20,46,44,41,45,41,35,0,0,0,29.54,29.28,29.15,10,7,2,36,23,44,0.58,8,Rain,78
2011-10-21,47,46,44,43,41,36,0,0,0,29.29,29.18,29.13,10,9,3,21,10,24,0.06,6,Rain,90
2011-10-22,48,42,36,41,38,34,0,0,0,29.61,29.43,29.30,10,10,8,9,5,10,0.02,5,Rain,288
2011-10-23,47,39,30,39,34,29,0,0,0,29.71,29.66,29.62,10,10,10,10,6,13,0.00,5,,235
2011-10-24,48,46,43,43,40,36,0,0,0,29.62,29.45,29.20,10,8,4,31,10,39,0.39,8,Rain,166
2011-10-25,46,44,42,43,36,24,0,0,0,29.23,28.78,28.48,10,8,3,47,25,60,0.76,7,Rain,226
2011-10-26,47,44,41,39,31,19,0,0,0,29.55,29.47,29.29,10,10,8,13,11,16,0.00,5,Rain,193
2011-10-27,45,44,42,41,40,38,0,0,0,29.41,29.37,29.35,10,9,4,22,12,29,0.38,7,Rain,35
2011-10-28,44,39,34,40,37,33,0,0,0,29.35,29.17,28.96,10,9,3,9,5,12,0.00,7,Rain,96
2011-10-29,43,41,39,38,35,29,0,0,0,29.31,29.02,28.87,10,9,6,30,14,39,0.60,7,Rain,308
2011-10-30,44,40,35,30,22,14,0,0,0,29.75,29.62,29.34,10,10,7,32,17,43,T,2,Rain-Snow,250
2011-10-31,42,39,35,34,31,26,0,0,0,29.65,29.59,29.49,10,10,10,14,5,17,0.03,5,Rain,253